Time;durP1;ratioP1;P1;durP2;ratioP2;P2;SDS_P1;SDS_P2;PMS_P1;PMS_P2;Temp;Humidity;BMP_temperature;BMP_pressure;BME280_temperature;BME280_humidity;BME280_pressure;Samples;Min_cycle;Max_cycle;Signal;HPM_P1;HPM_P2
2022/12/05 00:01:42;;;;;;;42.22;21.63;;;3.10;98.30;;;;;;5026905;28;20120;-73
2022/12/05 00:04:10;;;;;;;52.45;22.95;;;3.00;98.30;;;;;;5032002;28;20025;-73
2022/12/05 00:06:37;;;;;;;46.95;21.60;;;3.10;98.40;;;;;;5028293;28;20349;-73
2022/12/05 00:09:05;;;;;;;50.15;22.35;;;3.10;98.30;;;;;;5036069;28;20069;-73
2022/12/05 00:11:33;;;;;;;46.10;21.55;;;3.10;98.40;;;;;;5024217;28;20033;-73
2022/12/05 00:13:59;;;;;;;44.08;21.75;;;3.10;98.40;;;;;;5026946;28;20145;-73
2022/12/05 00:16:27;;;;;;;48.15;21.58;;;3.10;98.40;;;;;;5026267;28;20036;-74
2022/12/05 00:18:53;;;;;;;53.70;21.88;;;3.10;98.40;;;;;;5034122;28;20053;-74
2022/12/05 00:21:24;;;;;;;45.53;21.88;;;3.10;98.40;;;;;;5030316;28;20021;-73
2022/12/05 00:23:50;;;;;;;49.50;22.75;;;3.10;98.50;;;;;;5024867;28;20405;-73
2022/12/05 00:26:16;;;;;;;49.47;22.23;;;3.10;98.50;;;;;;5011588;28;20111;-73
2022/12/05 00:28:42;;;;;;;49.00;20.48;;;3.10;98.50;;;;;;5023135;28;20465;-73
2022/12/05 00:31:13;;;;;;;55.05;22.90;;;3.10;98.50;;;;;;5017001;28;20018;-73
2022/12/05 00:33:39;;;;;;;50.63;22.90;;;3.10;98.50;;;;;;5023527;28;20446;-73
2022/12/05 00:36:08;;;;;;;44.45;21.50;;;3.10;98.50;;;;;;5022257;28;20065;-73
2022/12/05 00:38:33;;;;;;;45.72;22.63;;;3.10;98.50;;;;;;5024644;28;20030;-73
2022/12/05 00:41:04;;;;;;;61.83;23.48;;;3.10;98.50;;;;;;5022262;28;20035;-73
2022/12/05 00:43:30;;;;;;;52.58;21.98;;;3.10;98.50;;;;;;5026660;28;20132;-73
2022/12/05 00:45:59;;;;;;;47.58;22.77;;;3.10;98.60;;;;;;5035375;28;20104;-75
2022/12/05 00:48:24;;;;;;;51.30;21.35;;;3.10;98.60;;;;;;5018729;28;20042;-73
2022/12/05 00:50:49;;;;;;;50.08;22.92;;;3.10;98.60;;;;;;5021149;28;20120;-72
2022/12/05 00:53:15;;;;;;;44.60;20.48;;;3.10;98.60;;;;;;5023117;28;20120;-74
2022/12/05 00:55:40;;;;;;;46.33;22.05;;;3.10;98.70;;;;;;5019878;28;20441;-72
2022/12/05 00:58:06;;;;;;;53.08;22.20;;;3.10;98.70;;;;;;5030607;28;20046;-72
2022/12/05 01:00:31;;;;;;;44.53;20.45;;;3.10;98.70;;;;;;5028334;28;20458;-72
2022/12/05 01:02:57;;;;;;;53.85;21.75;;;3.10;98.70;;;;;;5024977;28;20117;-75
2022/12/05 01:05:22;;;;;;;50.15;20.23;;;3.10;98.80;;;;;;5028437;28;20040;-72
2022/12/05 01:07:48;;;;;;;51.13;21.08;;;3.10;98.80;;;;;;5028172;28;20114;-72
2022/12/05 01:10:13;;;;;;;47.22;20.13;;;3.10;98.90;;;;;;5023047;28;20040;-72
2022/12/05 01:12:39;;;;;;;44.67;20.63;;;3.10;98.90;;;;;;5025890;28;20037;-72
2022/12/05 01:15:05;;;;;;;46.60;21.35;;;3.10;98.90;;;;;;5029777;28;20158;-73
2022/12/05 01:17:30;;;;;;;47.70;21.08;;;3.10;98.90;;;;;;5012928;28;20026;-73
2022/12/05 01:19:56;;;;;;;45.38;20.45;;;3.10;99.00;;;;;;5032653;28;20035;-72
2022/12/05 01:22:21;;;;;;;53.17;20.83;;;3.10;99.00;;;;;;5027284;28;20049;-71
2022/12/05 01:24:47;;;;;;;48.92;21.42;;;3.20;99.00;;;;;;5031930;28;20057;-71
2022/12/05 01:27:12;;;;;;;48.78;20.73;;;3.20;99.10;;;;;;5033383;28;20043;-71
2022/12/05 01:29:38;;;;;;;45.85;20.42;;;3.20;99.10;;;;;;5028334;28;20025;-73
2022/12/05 01:32:03;;;;;;;48.17;20.00;;;3.20;99.10;;;;;;5026416;28;20045;-72
2022/12/05 01:34:29;;;;;;;42.20;20.15;;;3.20;99.10;;;;;;5020185;28;20499;-71
2022/12/05 01:36:54;;;;;;;41.22;18.55;;;3.10;99.20;;;;;;5021567;28;20025;-72
2022/12/05 01:39:20;;;;;;;48.50;19.42;;;3.20;99.20;;;;;;5017641;28;20100;-72
2022/12/05 01:41:47;;;;;;;47.65;19.63;;;3.20;99.20;;;;;;5023648;28;20041;-72
2022/12/05 01:44:13;;;;;;;42.83;19.33;;;3.20;99.20;;;;;;5025361;28;20125;-72
2022/12/05 01:46:44;;;;;;;39.72;19.70;;;3.10;99.30;;;;;;5031123;28;20068;-72
2022/12/05 01:49:26;;;;;;;40.25;19.85;;;3.20;99.30;;;;;;5030702;28;20095;-72
2022/12/05 01:52:07;;;;;;;38.17;18.70;;;3.20;99.40;;;;;;5027166;28;20032;-72
2022/12/05 01:54:35;;;;;;;47.00;19.58;;;3.20;99.30;;;;;;5025212;28;20423;-72
2022/12/05 01:57:05;;;;;;;42.38;18.65;;;3.20;99.40;;;;;;5028750;28;20120;-71
2022/12/05 01:59:35;;;;;;;41.78;19.33;;;3.20;99.40;;;;;;5024242;28;20040;-71
2022/12/05 02:02:01;;;;;;;44.17;19.67;;;3.20;99.40;;;;;;5029009;28;20120;-72
2022/12/05 02:04:27;;;;;;;44.25;19.38;;;3.20;99.40;;;;;;5031064;28;20056;-71
2022/12/05 02:06:53;;;;;;;49.53;19.58;;;3.20;99.40;;;;;;5040255;28;20199;-71
2022/12/05 02:09:20;;;;;;;48.45;19.55;;;3.20;99.50;;;;;;5029528;28;20318;-71
2022/12/05 02:11:53;;;;;;;45.63;20.13;;;3.20;99.50;;;;;;5028577;28;20714;-72
2022/12/05 02:14:35;;;;;;;41.05;19.33;;;3.20;99.50;;;;;;5029924;28;20025;-72
2022/12/05 02:17:20;;;;;;;41.35;19.02;;;3.20;99.50;;;;;;5035943;28;20029;-72
2022/12/05 02:20:11;;;;;;;40.33;18.80;;;3.20;99.60;;;;;;5026069;28;20063;-72
2022/12/05 02:22:39;;;;;;;;;;;3.20;99.60;;;;;;5019108;28;20385;-73
2022/12/05 02:25:32;;;;;;;39.15;17.23;;;3.20;99.60;;;;;;5027287;28;20008;-72
2022/12/05 02:28:08;;;;;;;47.40;18.75;;;3.20;99.60;;;;;;5032748;28;20059;-72
2022/12/05 02:30:58;;;;;;;43.28;19.00;;;3.20;99.60;;;;;;5024929;28;20035;-72
2022/12/05 02:33:30;;;;;;;39.15;18.50;;;3.20;99.60;;;;;;5030703;28;20118;-72
2022/12/05 02:36:20;;;;;;;39.90;18.23;;;3.20;99.60;;;;;;5026905;28;20060;-72
2022/12/05 02:38:56;;;;;;;40.30;18.33;;;3.20;99.70;;;;;;5022788;28;20378;-70
2022/12/05 02:41:32;;;;;;;43.83;19.80;;;3.20;99.70;;;;;;5017350;28;20044;-72
2022/12/05 02:44:16;;;;;;;41.95;19.00;;;3.20;99.70;;;;;;5026415;28;20428;-72
2022/12/05 02:46:43;;;;;;;43.92;19.48;;;3.30;99.70;;;;;;5039678;28;20038;-72
2022/12/05 02:49:12;;;;;;;37.47;18.67;;;3.20;99.70;;;;;;5027883;28;20082;-72
2022/12/05 02:51:43;;;;;;;42.72;17.73;;;3.30;99.70;;;;;;5025648;28;20044;-71
2022/12/05 02:54:12;;;;;;;40.15;19.15;;;3.30;99.70;;;;;;5036003;28;20328;-72
2022/12/05 02:56:42;;;;;;;39.22;19.27;;;3.30;99.70;;;;;;5028313;28;20064;-72
2022/12/05 02:59:08;;;;;;;36.78;18.63;;;3.30;99.80;;;;;;5030968;28;20021;-73
2022/12/05 03:01:33;;;;;;;43.42;19.48;;;3.20;99.70;;;;;;5027465;28;20022;-72
2022/12/05 03:04:01;;;;;;;38.78;18.92;;;3.20;99.70;;;;;;5021500;28;20029;-72
2022/12/05 03:06:31;;;;;;;44.85;19.35;;;3.30;99.80;;;;;;5025803;28;20022;-72
2022/12/05 03:09:00;;;;;;;43.00;18.50;;;3.30;99.80;;;;;;5036561;28;20033;-72
2022/12/05 03:11:30;;;;;;;47.95;19.23;;;3.30;99.80;;;;;;5019224;28;20438;-72
2022/12/05 03:13:58;;;;;;;41.25;18.77;;;3.30;99.80;;;;;;5021245;28;20033;-72
2022/12/05 03:16:39;;;;;;;38.35;18.17;;;3.30;99.80;;;;;;5027167;28;20650;-72
2022/12/05 03:19:12;;;;;;;39.33;18.05;;;3.30;99.80;;;;;;5040124;28;20071;-72
2022/12/05 03:22:00;;;;;;;38.42;18.10;;;3.30;99.80;;;;;;5030214;28;20029;-72
2022/12/05 03:24:26;;;;;;;47.63;19.45;;;3.30;99.80;;;;;;5020937;28;21366;-72
2022/12/05 03:27:33;;;;;;;40.40;18.95;;;3.30;99.90;;;;;;5033746;28;20049;-72
2022/12/05 03:30:06;;;;;;;36.40;17.80;;;3.40;99.90;;;;;;5015716;28;20086;-73
2022/12/05 03:32:50;;;;;;;40.78;18.77;;;3.30;99.90;;;;;;5028058;28;20087;-72
2022/12/05 03:35:27;;;;;;;40.95;18.80;;;3.40;99.90;;;;;;5027240;28;20045;-72
2022/12/05 03:38:09;;;;;;;43.08;18.92;;;3.30;99.90;;;;;;5028024;28;20040;-72
2022/12/05 03:40:43;;;;;;;40.78;18.13;;;3.40;99.90;;;;;;5018315;28;20021;-72
2022/12/05 03:43:28;;;;;;;39.63;18.92;;;3.40;99.90;;;;;;5022808;28;20065;-71
2022/12/05 03:46:17;;;;;;;42.75;19.02;;;3.30;99.90;;;;;;5029255;28;20131;-73
2022/12/05 03:48:54;;;;;;;36.13;17.42;;;3.30;99.90;;;;;;5024305;28;20029;-71
2022/12/05 03:51:24;;;;;;;39.60;18.05;;;3.30;99.90;;;;;;5028714;28;20029;-72
2022/12/05 03:53:58;;;;;;;43.28;18.17;;;3.40;99.90;;;;;;5027883;28;20159;-71
2022/12/05 03:56:34;;;;;;;37.85;17.80;;;3.40;99.90;;;;;;5028492;28;20142;-72
2022/12/05 03:59:28;;;;;;;42.65;18.45;;;3.30;99.90;;;;;;5024440;28;20314;-71
2022/12/05 04:01:56;;;;;;;38.60;18.52;;;3.40;99.90;;;;;;5017268;28;20048;-72
2022/12/05 04:04:29;;;;;;;43.42;18.75;;;3.40;99.90;;;;;;5026150;28;20020;-72
2022/12/05 04:06:57;;;;;;;38.78;18.10;;;3.40;99.90;;;;;;5026956;28;20021;-75
2022/12/05 04:09:31;;;;;;;36.25;18.17;;;3.40;99.90;;;;;;5024166;28;20171;-73
2022/12/05 04:12:02;;;;;;;39.03;18.85;;;3.40;99.90;;;;;;5024692;28;20041;-72
2022/12/05 04:14:36;;;;;;;37.80;17.55;;;3.40;99.90;;;;;;5028596;28;20053;-74
2022/12/05 04:17:08;;;;;;;46.45;18.98;;;3.40;99.90;;;;;;5022354;28;20064;-71
2022/12/05 04:22:38;;;;;;;34.33;16.65;;;3.40;99.90;;;;;;5020841;28;20493;-72
2022/12/05 04:28:03;;;;;;;38.58;17.35;;;3.40;99.90;;;;;;5023911;28;20091;-72
2022/12/05 04:30:50;;;;;;;47.03;18.00;;;3.40;99.90;;;;;;5028502;28;20029;-73
2022/12/05 04:33:30;;;;;;;43.05;16.92;;;3.40;99.90;;;;;;5019907;28;20104;-73
2022/12/05 04:36:06;;;;;;;41.92;17.42;;;3.40;99.90;;;;;;5028270;28;20444;-72
2022/12/05 04:38:48;;;;;;;42.08;17.65;;;3.40;99.90;;;;;;5025011;28;20041;-72
2022/12/05 04:41:19;;;;;;;40.80;17.27;;;3.40;99.90;;;;;;5025322;28;20444;-72
2022/12/05 04:43:47;;;;;;;40.60;16.95;;;3.40;99.90;;;;;;5024967;28;20029;-72
2022/12/05 04:46:15;;;;;;;37.50;16.80;;;3.40;99.90;;;;;;5026484;28;20021;-72
2022/12/05 04:48:44;;;;;;;37.53;16.70;;;3.40;99.90;;;;;;5023888;28;20342;-72
2022/12/05 04:51:17;;;;;;;41.10;16.48;;;3.40;99.90;;;;;;5026111;28;20025;-72
2022/12/05 04:53:45;;;;;;;36.35;16.88;;;3.40;99.90;;;;;;5025322;28;20176;-72
2022/12/05 04:56:14;;;;;;;38.28;17.73;;;3.40;99.90;;;;;;5025462;28;20022;-72
2022/12/05 04:58:40;;;;;;;40.58;17.63;;;3.40;99.90;;;;;;5023887;28;20489;-72
2022/12/05 05:01:24;;;;;;;41.67;17.33;;;3.40;99.90;;;;;;5023652;28;20025;-72
2022/12/05 05:03:55;;;;;;;35.42;15.93;;;3.40;99.90;;;;;;5036259;28;20068;-71
2022/12/05 05:06:21;;;;;;;34.25;14.95;;;3.40;99.90;;;;;;5024909;28;20439;-71
2022/12/05 05:08:55;;;;;;;38.53;16.15;;;3.40;99.90;;;;;;5026254;28;20064;-72
2022/12/05 05:11:25;;;;;;;33.67;16.17;;;3.40;99.90;;;;;;5023499;28;20052;-72
2022/12/05 05:13:52;;;;;;;33.50;15.65;;;3.40;99.90;;;;;;5026227;28;20032;-72
2022/12/05 05:16:24;;;;;;;37.13;15.32;;;3.40;99.90;;;;;;5022847;28;20422;-72
2022/12/05 05:18:50;;;;;;;36.38;15.43;;;3.40;99.90;;;;;;5024008;28;20029;-72
2022/12/05 05:21:25;;;;;;;36.78;15.80;;;3.40;99.90;;;;;;5025854;28;20123;-72
2022/12/05 05:23:51;;;;;;;36.83;15.18;;;3.40;99.90;;;;;;5023316;28;20149;-72
2022/12/05 05:26:17;;;;;;;36.20;15.95;;;3.40;99.90;;;;;;5025840;28;20085;-72
2022/12/05 05:28:43;;;;;;;35.17;15.93;;;3.40;99.90;;;;;;5025647;28;20342;-74
2022/12/05 05:31:09;;;;;;;32.05;15.95;;;3.50;99.90;;;;;;5025422;28;20104;-74
2022/12/05 05:33:35;;;;;;;35.20;16.05;;;3.40;99.90;;;;;;5018715;28;20107;-75
2022/12/05 05:36:06;;;;;;;36.13;16.50;;;3.40;99.90;;;;;;5027040;28;20121;-75
2022/12/05 05:38:39;;;;;;;30.98;14.48;;;3.40;99.90;;;;;;5023766;28;20026;-75
2022/12/05 05:41:05;;;;;;;32.45;15.43;;;3.40;99.90;;;;;;5023814;28;20053;-75
2022/12/05 05:43:31;;;;;;;28.40;14.02;;;3.40;99.90;;;;;;5022439;28;20068;-75
2022/12/05 05:45:57;;;;;;;30.08;14.55;;;3.40;99.90;;;;;;5029415;28;20041;-75
2022/12/05 05:48:22;;;;;;;29.30;13.85;;;3.40;99.90;;;;;;5034515;28;20068;-75
2022/12/05 05:50:47;;;;;;;32.40;15.55;;;3.40;99.90;;;;;;5023723;28;20179;-75
2022/12/05 05:53:13;;;;;;;28.38;14.32;;;3.40;99.90;;;;;;5022331;28;20030;-74
2022/12/05 05:55:40;;;;;;;32.03;14.48;;;3.40;99.90;;;;;;5018514;28;20100;-74
2022/12/05 05:58:05;;;;;;;27.77;14.40;;;3.40;99.90;;;;;;5030339;28;20089;-75
2022/12/05 06:00:31;;;;;;;31.17;14.32;;;3.40;99.90;;;;;;5016521;28;20026;-74
2022/12/05 06:02:56;;;;;;;34.42;14.07;;;3.40;99.90;;;;;;5032014;28;20038;-74
2022/12/05 06:05:22;;;;;;;31.98;14.43;;;3.40;99.90;;;;;;5022871;28;20208;-75
2022/12/05 06:07:47;;;;;;;29.65;14.10;;;3.40;99.90;;;;;;5017050;28;20419;-75
2022/12/05 06:10:13;;;;;;;30.42;13.82;;;3.40;99.90;;;;;;5017457;28;20055;-76
2022/12/05 06:12:38;;;;;;;32.40;14.20;;;3.40;99.90;;;;;;5019663;28;20033;-75
2022/12/05 06:15:04;;;;;;;30.75;14.30;;;3.40;99.90;;;;;;5017553;28;20182;-71
2022/12/05 06:17:30;;;;;;;28.38;13.07;;;3.40;99.90;;;;;;5031499;28;20026;-73
2022/12/05 06:19:56;;;;;;;27.00;12.85;;;3.50;99.90;;;;;;5035467;28;20026;-73
2022/12/05 06:22:21;;;;;;;26.88;13.48;;;3.40;99.90;;;;;;5023367;28;20045;-73
2022/12/05 06:24:47;;;;;;;30.30;13.57;;;3.40;99.90;;;;;;5033368;28;20041;-72
2022/12/05 06:27:12;;;;;;;28.08;12.50;;;3.40;99.90;;;;;;5026562;28;20040;-73
2022/12/05 06:29:37;;;;;;;29.77;12.77;;;3.40;99.90;;;;;;5026185;28;20425;-72
2022/12/05 06:32:03;;;;;;;24.58;11.70;;;3.40;99.90;;;;;;5024696;28;20033;-73
2022/12/05 06:34:31;;;;;;;24.58;11.75;;;3.40;99.90;;;;;;5024021;28;20025;-74
2022/12/05 06:36:57;;;;;;;27.02;11.70;;;3.40;99.90;;;;;;5030603;28;20036;-73
2022/12/05 06:39:22;;;;;;;22.02;11.57;;;3.30;99.90;;;;;;5024119;28;20030;-74
2022/12/05 06:41:48;;;;;;;28.17;12.60;;;3.30;99.90;;;;;;5026868;28;20023;-75
2022/12/05 06:44:13;;;;;;;26.63;11.98;;;3.40;99.90;;;;;;5023644;28;20461;-73
2022/12/05 06:46:39;;;;;;;27.85;11.55;;;3.40;99.90;;;;;;5022560;28;20037;-73
2022/12/05 06:49:04;;;;;;;23.05;11.50;;;3.40;99.90;;;;;;5026456;28;20326;-74
2022/12/05 06:51:30;;;;;;;25.30;11.38;;;3.40;99.90;;;;;;5020809;28;20566;-73
2022/12/05 06:53:56;;;;;;;20.35;11.15;;;3.40;99.90;;;;;;5026622;28;20033;-74
2022/12/05 06:56:21;;;;;;;22.25;11.35;;;3.40;99.90;;;;;;5031075;28;20055;-74
2022/12/05 06:58:49;;;;;;;30.02;12.13;;;3.40;99.90;;;;;;5029323;28;20121;-74
2022/12/05 07:04:02;;;;;;;25.10;10.75;;;3.30;99.90;;;;;;5025337;28;20188;-74
2022/12/05 07:06:28;;;;;;;26.75;11.13;;;3.40;99.90;;;;;;5023519;28;20434;-74
2022/12/05 07:08:54;;;;;;;23.45;10.80;;;3.30;99.90;;;;;;5022672;28;20040;-74
2022/12/05 07:11:19;;;;;;;27.00;11.07;;;3.30;99.90;;;;;;5027693;28;20105;-74
2022/12/05 07:13:45;;;;;;;26.67;11.43;;;3.30;99.90;;;;;;5025634;28;20045;-74
2022/12/05 07:16:11;;;;;;;28.80;11.60;;;3.30;99.90;;;;;;5027276;28;20147;-73
2022/12/05 07:18:36;;;;;;;27.35;11.40;;;3.20;99.90;;;;;;5028688;28;20034;-74
2022/12/05 07:21:07;;;;;;;22.85;11.23;;;3.30;99.90;;;;;;5029900;28;20469;-74
2022/12/05 07:23:33;;;;;;;28.92;11.70;;;3.20;99.90;;;;;;5022870;28;20514;-74
2022/12/05 07:25:58;;;;;;;25.98;10.98;;;3.20;99.90;;;;;;5026694;28;20039;-74
2022/12/05 07:28:24;;;;;;;29.00;11.98;;;3.10;99.90;;;;;;5027893;28;20061;-74
2022/12/05 07:31:21;;;;;;;29.98;11.07;;;3.20;99.90;;;;;;5028942;28;20029;-74
2022/12/05 07:33:47;;;;;;;27.77;11.18;;;3.10;99.90;;;;;;5017570;28;20120;-74
2022/12/05 07:36:15;;;;;;;28.17;12.40;;;3.10;99.90;;;;;;5013900;28;20038;-74
2022/12/05 07:38:42;;;;;;;28.98;11.75;;;3.20;99.90;;;;;;5025447;28;20053;-74
2022/12/05 07:41:09;;;;;;;31.58;12.82;;;3.10;99.90;;;;;;5023547;28;20087;-74
2022/12/05 07:43:35;;;;;;;36.50;14.43;;;3.10;99.90;;;;;;5021024;28;20144;-74
2022/12/05 07:46:05;;;;;;;39.28;13.95;;;3.10;99.90;;;;;;5030859;28;20120;-74
2022/12/05 07:48:30;;;;;;;39.47;14.07;;;3.10;99.90;;;;;;5023386;28;20017;-74
2022/12/05 07:51:01;;;;;;;49.88;15.68;;;3.10;99.90;;;;;;5026077;28;20541;-74
2022/12/05 07:53:27;;;;;;;50.60;15.52;;;3.10;99.90;;;;;;5027342;28;20121;-74
2022/12/05 07:55:53;;;;;;;52.92;16.55;;;3.10;99.90;;;;;;5022728;28;20034;-74
2022/12/05 07:58:18;;;;;;;47.80;15.95;;;3.10;99.90;;;;;;5027244;28;20417;-74
2022/12/05 08:00:43;;;;;;;62.20;17.85;;;3.10;99.90;;;;;;5026726;28;20075;-74
2022/12/05 08:03:09;;;;;;;60.33;18.65;;;3.10;99.90;;;;;;5029138;28;20134;-74
2022/12/05 08:05:34;;;;;;;58.30;18.50;;;3.00;99.90;;;;;;5035554;28;20081;-73
2022/12/05 08:08:00;;;;;;;57.90;17.75;;;3.10;99.90;;;;;;5029648;28;20026;-74
2022/12/05 08:10:25;;;;;;;53.78;17.40;;;3.10;99.90;;;;;;5021691;28;20049;-75
2022/12/05 08:12:51;;;;;;;61.38;19.55;;;3.10;99.90;;;;;;5014923;28;20037;-75
2022/12/05 08:15:17;;;;;;;53.92;18.15;;;3.10;99.90;;;;;;5022751;28;20037;-74
2022/12/05 08:17:42;;;;;;;59.88;17.38;;;3.10;99.90;;;;;;5020238;28;20401;-74
2022/12/05 08:20:08;;;;;;;57.20;19.15;;;3.10;99.90;;;;;;5026083;28;20112;-74
2022/12/05 08:22:33;;;;;;;60.72;18.30;;;3.00;99.90;;;;;;5028381;28;20105;-75
2022/12/05 08:24:59;;;;;;;55.03;19.20;;;3.00;99.90;;;;;;5019047;28;20109;-74
2022/12/05 08:27:24;;;;;;;58.67;18.88;;;3.00;99.90;;;;;;5027180;28;20429;-74
2022/12/05 08:29:52;;;;;;;60.05;18.50;;;3.00;99.90;;;;;;5024020;28;20454;-74
2022/12/05 08:32:17;;;;;;;65.25;19.35;;;3.00;99.90;;;;;;5018750;28;20041;-74
2022/12/05 08:34:43;;;;;;;48.35;17.23;;;3.00;99.90;;;;;;5026651;28;20044;-73
2022/12/05 08:37:08;;;;;;;53.90;16.92;;;3.00;99.90;;;;;;5024659;28;20170;-73
2022/12/05 08:39:35;;;;;;;50.38;17.00;;;3.00;99.90;;;;;;5022355;28;20104;-73
2022/12/05 08:42:01;;;;;;;50.78;18.67;;;2.90;99.90;;;;;;5025309;28;20036;-73
2022/12/05 08:44:26;;;;;;;47.72;17.50;;;2.90;99.90;;;;;;5027573;28;20029;-74
2022/12/05 08:46:51;;;;;;;48.95;17.17;;;2.90;99.90;;;;;;5027185;28;20440;-73
2022/12/05 08:49:17;;;;;;;49.55;17.30;;;2.90;99.90;;;;;;5027566;28;20045;-73
2022/12/05 08:51:43;;;;;;;54.03;16.65;;;2.90;99.90;;;;;;5026274;28;20214;-73
2022/12/05 08:54:09;;;;;;;41.15;16.23;;;2.80;99.90;;;;;;5025524;28;20033;-72
2022/12/05 08:56:35;;;;;;;48.08;17.33;;;2.90;99.90;;;;;;5023434;28;20136;-74
2022/12/05 08:59:04;;;;;;;44.78;16.58;;;2.80;99.90;;;;;;5026491;28;20024;-74
2022/12/05 09:01:30;;;;;;;53.05;17.25;;;2.80;99.90;;;;;;5027219;28;20036;-74
2022/12/05 09:03:59;;;;;;;51.50;17.38;;;2.90;99.90;;;;;;5019141;28;20128;-74
2022/12/05 09:06:26;;;;;;;50.65;17.83;;;2.80;99.90;;;;;;5016197;28;20025;-74
2022/12/05 09:08:57;;;;;;;46.55;17.33;;;2.80;99.90;;;;;;5015468;28;20280;-74
2022/12/05 09:11:25;;;;;;;48.60;17.17;;;2.80;99.90;;;;;;5020032;28;20034;-74
2022/12/05 09:13:52;;;;;;;43.20;17.67;;;2.80;99.90;;;;;;5025488;28;20478;-74
2022/12/05 09:16:21;;;;;;;47.67;16.45;;;2.80;99.90;;;;;;5017207;28;20088;-74
2022/12/05 09:18:47;;;;;;;43.75;16.90;;;2.80;99.90;;;;;;5008171;28;20099;-73
2022/12/05 09:21:16;;;;;;;46.58;16.98;;;2.80;99.90;;;;;;5017183;28;20296;-73
2022/12/05 09:23:42;;;;;;;42.47;16.88;;;2.80;99.90;;;;;;5024623;28;20049;-74
2022/12/05 09:26:10;;;;;;;47.58;17.00;;;2.80;99.90;;;;;;5019019;28;20040;-74
2022/12/05 09:28:36;;;;;;;47.97;15.98;;;2.70;99.90;;;;;;5018607;28;20575;-75
2022/12/05 09:31:04;;;;;;;46.13;16.13;;;2.70;99.90;;;;;;5018744;28;20025;-74
2022/12/05 09:33:32;;;;;;;48.75;17.42;;;2.60;99.90;;;;;;5015904;28;20087;-74
2022/12/05 09:36:00;;;;;;;38.85;15.70;;;2.60;99.90;;;;;;5021899;28;20038;-74
2022/12/05 09:38:26;;;;;;;42.17;16.02;;;2.60;99.90;;;;;;5024567;28;20120;-74
2022/12/05 09:42:03;;;;;;;42.28;15.63;;;2.60;99.90;;;;;;5021168;28;20159;-74
2022/12/05 09:44:14;;;;;;;40.80;16.02;;;2.60;99.90;;;;;;5025094;28;20166;-73
2022/12/05 09:47:31;;;;;;;46.05;15.07;;;2.60;99.90;;;;;;5018514;28;20014;-74
2022/12/05 09:50:03;;;;;;;38.30;15.10;;;2.60;99.90;;;;;;4989817;28;20050;-72
2022/12/05 09:52:37;;;;;;;38.38;14.70;;;2.50;99.90;;;;;;5022934;28;20037;-72
2022/12/05 09:55:10;;;;;;;36.30;13.93;;;2.50;99.90;;;;;;5027092;28;20758;-72
2022/12/05 09:57:39;;;;;;;40.75;15.45;;;2.50;99.90;;;;;;5024590;28;20029;-73
2022/12/05 10:00:08;;;;;;;39.33;15.05;;;2.50;99.90;;;;;;5019735;28;20060;-72
2022/12/05 10:02:41;;;;;;;43.53;15.95;;;2.50;99.90;;;;;;5011661;28;20112;-71
2022/12/05 10:05:24;;;;;;;38.00;15.45;;;2.50;99.90;;;;;;5027974;28;20404;-70
2022/12/05 10:08:24;;;;;;;38.90;16.02;;;2.40;99.90;;;;;;5031346;28;20391;-70
2022/12/05 10:11:17;;;;;;;37.00;15.25;;;2.30;99.80;;;;;;5025092;28;20060;-71
2022/12/05 10:13:47;;;;;;;39.63;16.00;;;2.40;99.90;;;;;;5024255;28;20041;-71
2022/12/05 10:16:29;;;;;;;47.58;16.45;;;2.30;99.90;;;;;;5027460;28;20184;-71
2022/12/05 10:19:00;;;;;;;41.17;16.52;;;2.30;99.80;;;;;;5026388;28;20032;-72
2022/12/05 10:21:33;;;;;;;41.42;15.20;;;2.30;99.90;;;;;;5023117;28;20101;-72
2022/12/05 10:24:01;;;;;;;37.70;15.52;;;2.30;99.80;;;;;;5028834;28;20049;-72
2022/12/05 10:26:36;;;;;;;39.25;14.82;;;2.30;99.90;;;;;;5020692;28;20396;-72
2022/12/05 10:29:16;;;;;;;34.17;13.48;;;2.40;99.90;;;;;;5018705;28;20029;-72
2022/12/05 10:31:44;;;;;;;35.22;14.27;;;2.50;99.90;;;;;;5024648;28;20088;-73
2022/12/05 10:34:17;;;;;;;33.35;15.43;;;2.50;99.90;;;;;;5028567;28;20427;-72
2022/12/05 10:36:55;;;;;;;39.42;17.02;;;2.60;99.90;;;;;;5029764;28;20489;-71
2022/12/05 10:39:20;;;;;;;35.10;16.02;;;2.50;99.80;;;;;;5027627;28;20105;-74
2022/12/05 10:41:46;;;;;;;36.15;15.02;;;2.50;99.70;;;;;;5023301;28;20075;-72
2022/12/05 10:44:11;;;;;;;33.65;14.50;;;2.60;99.80;;;;;;5029638;28;20103;-73
2022/12/05 10:46:37;;;;;;;32.47;14.25;;;2.60;99.80;;;;;;5024181;28;20033;-71
2022/12/05 10:49:10;;;;;;;33.13;14.90;;;2.60;99.80;;;;;;5025094;28;20051;-71
2022/12/05 10:51:35;;;;;;;30.48;13.88;;;2.60;99.70;;;;;;5021680;28;20489;-71
2022/12/05 10:54:12;;;;;;;34.63;15.48;;;2.60;99.70;;;;;;5018372;28;20101;-71
2022/12/05 10:56:46;;;;;;;31.35;13.88;;;2.60;99.70;;;;;;5026807;28;20033;-72
2022/12/05 10:59:42;;;;;;;29.50;13.60;;;2.60;99.70;;;;;;5024783;28;20353;-71
2022/12/05 11:02:24;;;;;;;33.17;13.82;;;2.50;99.50;;;;;;5018951;28;20025;-71
2022/12/05 11:04:50;;;;;;;30.13;13.90;;;2.50;99.60;;;;;;5026992;28;20032;-71
2022/12/05 11:07:28;;;;;;;34.35;14.00;;;2.50;99.60;;;;;;5030712;28;20086;-71
2022/12/05 11:09:53;;;;;;;29.25;13.73;;;2.50;99.60;;;;;;5019018;28;20066;-73
2022/12/05 11:12:26;;;;;;;27.75;13.80;;;2.50;99.70;;;;;;5034754;28;20104;-71
2022/12/05 11:14:56;;;;;;;31.70;13.35;;;2.50;99.60;;;;;;5019333;28;20103;-72
2022/12/05 11:17:35;;;;;;;29.08;13.05;;;2.60;99.70;;;;;;5029285;28;20489;-72
2022/12/05 11:20:01;;;;;;;30.83;13.40;;;2.60;99.70;;;;;;5024765;28;20052;-71
2022/12/05 11:22:32;;;;;;;27.98;13.07;;;2.60;99.60;;;;;;5033438;28;20482;-72
2022/12/05 11:24:58;;;;;;;31.65;13.98;;;2.60;99.60;;;;;;5028087;28;20484;-73
2022/12/05 11:27:29;;;;;;;28.30;14.13;;;2.60;99.70;;;;;;5024343;28;20037;-72
2022/12/05 11:29:58;;;;;;;33.33;13.30;;;2.60;99.60;;;;;;5024985;28;20033;-72
2022/12/05 11:32:28;;;;;;;26.77;13.38;;;2.60;99.60;;;;;;5028148;28;20110;-72
2022/12/05 11:35:26;;;;;;;31.63;14.02;;;2.60;99.60;;;;;;5030366;28;20482;-72
2022/12/05 11:38:01;;;;;;;28.90;12.48;;;2.60;99.50;;;;;;5020439;28;20037;-72
2022/12/05 11:40:40;;;;;;;32.75;14.07;;;2.60;99.70;;;;;;5021811;28;20470;-72
2022/12/05 11:43:18;;;;;;;29.33;13.45;;;2.60;99.60;;;;;;5028299;28;20029;-71
2022/12/05 11:46:07;;;;;;;30.85;14.23;;;2.60;99.60;;;;;;5037019;28;20026;-73
2022/12/05 11:48:33;;;;;;;31.08;13.68;;;2.50;99.60;;;;;;5023548;28;20381;-72
2022/12/05 11:51:10;;;;;;;30.25;14.50;;;2.60;99.60;;;;;;5029067;28;20021;-72
2022/12/05 11:53:58;;;;;;;32.03;12.70;;;2.50;99.50;;;;;;5023849;28;20122;-72
2022/12/05 11:56:38;;;;;;;29.10;13.13;;;2.40;99.60;;;;;;5025970;28;20111;-73
2022/12/05 11:59:25;;;;;;;27.85;13.38;;;2.40;99.60;;;;;;5029161;28;20055;-72
2022/12/05 12:02:17;;;;;;;28.63;13.70;;;2.40;99.50;;;;;;5017077;28;20048;-72
2022/12/05 12:05:16;;;;;;;33.83;14.05;;;2.50;99.60;;;;;;5018452;28;20121;-72
2022/12/05 12:08:02;;;;;;;30.67;13.85;;;2.40;99.50;;;;;;5021086;28;20355;-72
2022/12/05 12:10:37;;;;;;;30.40;13.10;;;2.50;99.70;;;;;;5030438;28;20077;-73
2022/12/05 12:13:29;;;;;;;34.63;13.30;;;2.40;99.60;;;;;;5016638;28;20446;-75
2022/12/05 12:16:14;;;;;;;31.67;13.40;;;2.40;99.60;;;;;;5021984;28;20041;-75
2022/12/05 12:18:58;;;;;;;29.33;12.80;;;2.40;99.50;;;;;;5018355;28;20026;-71
2022/12/05 12:22:01;;;;;;;31.00;12.80;;;2.40;99.50;;;;;;5020269;28;20038;-73
2022/12/05 12:24:44;;;;;;;34.53;13.00;;;2.40;99.60;;;;;;5024659;28;20092;-69
2022/12/05 12:27:35;;;;;;;29.33;12.95;;;2.40;99.50;;;;;;5010122;28;20143;-71
2022/12/05 12:30:09;;;;;;;27.10;13.43;;;2.40;99.50;;;;;;5024704;28;20408;-72
2022/12/05 12:33:04;;;;;;;29.08;13.50;;;2.40;99.40;;;;;;5024535;28;20025;-75
2022/12/05 12:35:38;;;;;;;25.65;11.82;;;2.40;99.50;;;;;;5024406;28;20090;-71
2022/12/05 12:38:04;;;;;;;24.35;12.38;;;2.40;99.50;;;;;;5025856;28;20098;-74
2022/12/05 12:40:48;;;;;;;22.75;11.57;;;2.30;99.40;;;;;;5026644;28;20095;-72
2022/12/05 12:43:21;;;;;;;28.95;12.38;;;2.30;99.50;;;;;;5021806;28;20388;-70
2022/12/05 12:45:50;;;;;;;24.67;12.75;;;2.20;99.30;;;;;;5018935;28;20034;-73
2022/12/05 12:49:02;;;;;;;29.42;12.07;;;2.30;99.50;;;;;;5025771;28;20105;-72
2022/12/05 12:51:30;;;;;;;22.25;11.18;;;2.30;99.40;;;;;;5018805;28;20048;-71
2022/12/05 12:54:19;;;;;;;23.85;11.80;;;2.20;99.40;;;;;;5026903;28;20105;-72
2022/12/05 12:57:00;;;;;;;21.77;12.20;;;2.10;99.40;;;;;;5022676;28;20326;-72
2022/12/05 13:00:07;;;;;;;23.05;11.65;;;2.20;99.40;;;;;;5038515;28;20028;-72
2022/12/05 13:02:36;;;;;;;25.27;11.77;;;2.30;99.50;;;;;;5019577;28;20026;-73
2022/12/05 13:05:39;;;;;;;23.67;12.27;;;2.30;99.40;;;;;;5023191;28;20038;-72
2022/12/05 13:08:21;;;;;;;24.48;12.15;;;2.40;99.50;;;;;;5025514;28;20495;-71
2022/12/05 13:10:48;;;;;;;24.95;12.48;;;2.40;99.40;;;;;;5022065;28;20042;-72